Time;durP1;ratioP1;P1;durP2;ratioP2;P2;SDS_P1;SDS_P2;PMS_P1;PMS_P2;Temp;Humidity;BMP_temperature;BMP_pressure;BME280_temperature;BME280_humidity;BME280_pressure;Samples;Min_cycle;Max_cycle;Signal;HPM_P1;HPM_P2
2022/11/30 00:02:01;;;;;;;;;;;4.60;99.90;;;;;;5009646;28;19952;-72
2022/11/30 00:04:28;;;;;;;;;;;4.60;99.90;;;;;;5022027;28;19936;-75
2022/11/30 00:07:00;;;;;;;;;;;4.60;99.90;;;;;;5035543;28;19929;-71
2022/11/30 00:09:26;;;;;;;;;;;4.60;99.90;;;;;;5008573;28;20304;-74
2022/11/30 00:11:58;;;;;;;;;;;4.60;99.90;;;;;;5030521;28;19925;-74
2022/11/30 00:14:29;;;;;;;;;;;4.60;99.90;;;;;;5016977;28;19975;-73
2022/11/30 00:17:01;;;;;;;;;;;4.60;99.90;;;;;;5031518;28;19975;-73
2022/11/30 00:19:32;;;;;;;;;;;4.50;99.90;;;;;;5044257;28;19932;-74
2022/11/30 00:22:04;;;;;;;;;;;4.50;99.90;;;;;;5017965;28;19944;-75
2022/11/30 00:24:35;;;;;;;;;;;4.50;99.90;;;;;;5028788;28;19953;-74
2022/11/30 00:27:07;;;;;;;;;;;4.50;99.90;;;;;;5041483;28;19932;-74
2022/11/30 00:29:38;;;;;;;;;;;4.40;99.90;;;;;;5037001;28;19925;-75
2022/11/30 00:32:10;;;;;;;;;;;4.50;99.90;;;;;;5037178;28;19971;-74
2022/11/30 00:34:37;;;;;;;;;;;4.50;99.90;;;;;;5023704;28;19932;-73
2022/11/30 00:37:08;;;;;;;;;;;4.40;99.90;;;;;;5030989;28;19925;-74
2022/11/30 00:39:35;;;;;;;;;;;4.50;99.90;;;;;;5025069;28;19926;-73
2022/11/30 00:42:07;;;;;;;;;;;4.50;99.90;;;;;;5041909;28;19951;-73
2022/11/30 00:44:38;;;;;;;;;;;4.50;99.90;;;;;;5023524;28;19925;-74
2022/11/30 00:47:10;;;;;;;;;;;4.50;99.90;;;;;;5013886;28;19983;-75
2022/11/30 00:49:36;;;;;;;;;;;4.50;99.90;;;;;;5038259;28;19926;-73
2022/11/30 00:52:08;;;;;;;;;;;4.50;99.90;;;;;;5025861;28;19929;-74
2022/11/30 00:54:40;;;;;;;;;;;4.50;99.90;;;;;;5037325;28;19925;-75
2022/11/30 00:57:06;;;;;;;;;;;4.50;99.90;;;;;;5031498;28;19925;-72
2022/11/30 00:59:38;;;;;;;;;;;4.50;99.90;;;;;;5033893;28;19929;-74
2022/11/30 01:02:09;;;;;;;;;;;4.50;99.90;;;;;;5038101;28;19990;-74
2022/11/30 01:04:41;;;;;;;;;;;4.50;99.90;;;;;;5016711;28;20639;-74
2022/11/30 01:07:12;;;;;;;;;;;4.50;99.90;;;;;;5014520;28;20299;-73
2022/11/30 01:09:44;;;;;;;;;;;4.50;99.90;;;;;;5044389;28;19925;-75
2022/11/30 01:12:15;;;;;;;;;;;4.50;99.90;;;;;;5033212;28;19925;-73
2022/11/30 01:14:47;;;;;;;;;;;4.50;99.90;;;;;;5039928;28;19952;-74
2022/11/30 01:17:18;;;;;;;;;;;4.50;99.90;;;;;;5039349;28;19925;-73
2022/11/30 01:19:50;;;;;;;;;;;4.50;99.90;;;;;;5040244;28;19925;-74
2022/11/30 01:22:22;;;;;;;;;;;4.50;99.90;;;;;;5031449;28;19933;-74
2022/11/30 01:24:54;;;;;;;;;;;4.50;99.90;;;;;;5017921;28;19928;-74
2022/11/30 01:27:25;;;;;;;;;;;4.50;99.90;;;;;;5014176;28;19971;-74
2022/11/30 01:29:57;;;;;;;;;;;4.50;99.90;;;;;;5034156;28;19951;-73
2022/11/30 01:32:28;;;;;;;;;;;4.50;99.90;;;;;;5039650;28;20441;-73
2022/11/30 01:35:00;;;;;;;;;;;4.50;99.90;;;;;;5040039;28;20669;-74
2022/11/30 01:37:32;;;;;;;;;;;4.50;99.90;;;;;;5029922;28;19955;-74
2022/11/30 01:39:58;;;;;;;;;;;4.50;99.90;;;;;;5043556;28;19976;-74
2022/11/30 01:42:25;;;;;;;;;;;4.50;99.90;;;;;;5039534;28;19932;-73
2022/11/30 01:44:57;;;;;;;;;;;4.50;99.90;;;;;;5044983;28;20402;-74
2022/11/30 01:47:27;;;;;;;;;;;4.50;99.90;;;;;;5034058;28;19984;-73
2022/11/30 01:50:05;;;;;;;;;;;4.50;99.90;;;;;;5007336;28;19975;-73
2022/11/30 01:52:38;;;;;;;;;;;4.50;99.90;;;;;;5023766;28;19925;-75
2022/11/30 01:55:13;;;;;;;;;;;4.50;99.90;;;;;;5027065;28;20342;-74
2022/11/30 01:57:49;;;;;;;;;;;4.40;99.90;;;;;;5039908;28;19986;-72
2022/11/30 02:00:21;;;;;;;;;;;4.40;99.90;;;;;;5039309;28;19924;-73
2022/11/30 02:03:01;;;;;;;;;;;4.40;99.90;;;;;;5012799;28;19931;-73
2022/11/30 02:05:34;;;;;;;;;;;4.30;99.90;;;;;;5016364;28;19936;-73
2022/11/30 02:08:01;;;;;;;;;;;4.30;99.90;;;;;;5033183;28;19970;-75
2022/11/30 02:10:34;;;;;;;;;;;4.30;99.90;;;;;;5025617;28;19929;-73
2022/11/30 02:13:13;;;;;;;;;;;4.30;99.90;;;;;;5028894;28;19932;-74
2022/11/30 02:15:57;;;;;;;;;;;4.30;99.90;;;;;;5025048;28;19925;-74
2022/11/30 02:18:31;;;;;;;;;;;4.30;99.90;;;;;;5041000;28;19932;-73
2022/11/30 02:21:07;;;;;;;;;;;4.30;99.90;;;;;;5013087;28;19976;-74
2022/11/30 02:23:51;;;;;;;;;;;4.30;99.90;;;;;;5036424;28;19929;-74
2022/11/30 02:26:30;;;;;;;;;;;4.30;99.90;;;;;;5003587;28;20418;-74
2022/11/30 02:29:05;;;;;;;;;;;4.30;99.90;;;;;;5035995;28;19925;-74
2022/11/30 02:31:49;;;;;;;;;;;4.30;99.90;;;;;;5017836;28;20337;-74
2022/11/30 02:34:19;;;;;;;;;;;4.30;99.90;;;;;;5027580;28;19980;-73
2022/11/30 02:36:51;;;;;;;;;;;4.30;99.90;;;;;;5011048;28;19929;-75
2022/11/30 02:39:19;;;;;;;;;;;4.30;99.90;;;;;;5021607;28;19925;-74
2022/11/30 02:41:50;;;;;;;;;;;4.30;99.90;;;;;;5036125;28;20455;-73
2022/11/30 02:44:19;;;;;;;;;;;4.30;99.90;;;;;;5028343;28;20407;-73
2022/11/30 02:46:52;;;;;;;;;;;4.30;99.90;;;;;;5015607;28;19979;-73
2022/11/30 02:49:23;;;;;;;;;;;4.30;99.90;;;;;;5026706;28;20353;-74
2022/11/30 02:51:55;;;;;;;;;;;4.30;99.90;;;;;;5041682;28;19971;-73
2022/11/30 02:54:27;;;;;;;;;;;4.30;99.90;;;;;;5046143;28;19925;-73
2022/11/30 02:56:59;;;;;;;;;;;4.30;99.90;;;;;;5032724;28;19924;-74
2022/11/30 02:59:31;;;;;;;;;;;4.20;99.90;;;;;;5045061;28;19936;-73
2022/11/30 03:02:02;;;;;;;;;;;4.30;99.90;;;;;;5027173;28;19930;-73
2022/11/30 03:04:34;;;;;;;;;;;4.30;99.90;;;;;;5022697;28;20287;-73
2022/11/30 03:07:05;;;;;;;;;;;4.30;99.90;;;;;;5036415;28;19924;-74
2022/11/30 03:09:37;;;;;;;;;;;4.30;99.90;;;;;;5019472;28;19971;-73
2022/11/30 03:12:09;;;;;;;;;;;4.30;99.90;;;;;;5025745;28;20360;-74
2022/11/30 03:14:35;;;;;;;;;;;4.20;99.90;;;;;;5028218;28;19933;-73
2022/11/30 03:17:07;;;;;;;;;;;4.20;99.90;;;;;;5035971;28;20393;-73
2022/11/30 03:19:38;;;;;;;;;;;4.20;99.90;;;;;;5038183;28;19951;-73
2022/11/30 03:22:10;;;;;;;;;;;4.20;99.90;;;;;;5041043;28;19924;-75
2022/11/30 03:24:41;;;;;;;;;;;4.10;99.90;;;;;;5044121;28;19933;-75
2022/11/30 03:27:13;;;;;;;;;;;4.10;99.90;;;;;;5037672;28;19936;-74
2022/11/30 03:29:45;;;;;;;;;;;4.10;99.90;;;;;;5024575;28;20307;-74
2022/11/30 03:32:17;;;;;;;;;;;4.10;99.90;;;;;;5023356;28;19925;-75
2022/11/30 03:34:49;;;;;;;;;;;4.00;99.90;;;;;;5046299;28;19925;-76
2022/11/30 03:37:20;;;;;;;;;;;4.10;99.90;;;;;;5030535;28;19929;-74
2022/11/30 03:39:52;;;;;;;;;;;4.00;99.90;;;;;;5050584;28;19925;-74
2022/11/30 03:42:18;;;;;;;;;;;4.10;99.90;;;;;;5040432;28;19982;-72
2022/11/30 03:44:50;;;;;;;;;;;4.10;99.90;;;;;;5044230;28;19928;-74
2022/11/30 03:47:16;;;;;;;;;;;4.10;99.90;;;;;;5035757;28;19924;-74
2022/11/30 03:49:48;;;;;;;;;;;4.00;99.90;;;;;;5044703;28;20027;-74
2022/11/30 03:52:19;;;;;;;;;;;4.00;99.90;;;;;;5027559;28;19929;-74
2022/11/30 03:54:51;;;;;;;;;;;4.00;99.90;;;;;;5019516;28;19929;-73
2022/11/30 03:57:23;;;;;;;;;;;4.00;99.90;;;;;;5022042;28;19964;-74
2022/11/30 03:59:54;;;;;;;;;;;4.00;99.90;;;;;;5016008;28;19972;-74
2022/11/30 04:02:26;;;;;;;;;;;4.00;99.90;;;;;;5037640;28;20125;-73
2022/11/30 04:04:58;;;;;;;;;;;4.00;99.90;;;;;;5035237;28;19932;-74
2022/11/30 04:07:29;;;;;;;;;;;4.00;99.90;;;;;;5008136;28;19975;-73
2022/11/30 04:10:01;;;;;;;;;;;4.00;99.90;;;;;;5032687;28;19925;-74
2022/11/30 04:12:27;;;;;;;;;;;4.00;99.90;;;;;;5039344;28;19931;-75
2022/11/30 04:14:59;;;;;;;;;;;4.00;99.90;;;;;;5032703;28;19983;-74
2022/11/30 04:17:30;;;;;;;;;;;3.90;99.90;;;;;;5038411;28;19982;-74
2022/11/30 04:19:57;;;;;;;;;;;3.90;99.90;;;;;;5008445;28;20407;-74
2022/11/30 04:22:28;;;;;;;;;;;4.00;99.90;;;;;;5032209;28;20395;-74
2022/11/30 04:25:00;;;;;;;;;;;4.00;99.90;;;;;;5003071;28;19971;-73
2022/11/30 04:27:32;;;;;;;;;;;4.00;99.90;;;;;;5027373;28;19925;-74
2022/11/30 04:30:04;;;;;;;;;;;4.00;99.90;;;;;;5047396;28;19982;-75
2022/11/30 04:32:36;;;;;;;;;;;4.00;99.90;;;;;;5034686;28;19925;-74
2022/11/30 04:35:08;;;;;;;;;;;4.00;99.90;;;;;;5020606;28;20018;-74
2022/11/30 04:37:39;;;;;;;;;;;4.00;99.90;;;;;;5020369;28;19933;-73
2022/11/30 04:40:11;;;;;;;;;;;4.00;99.90;;;;;;5047331;28;19929;-73
2022/11/30 04:42:43;;;;;;;;;;;4.00;99.90;;;;;;5035484;28;20273;-74
2022/11/30 04:45:14;;;;;;;;;;;4.00;99.90;;;;;;5041579;28;19929;-75
2022/11/30 04:47:41;;;;;;;;;;;4.00;99.90;;;;;;5029720;28;19924;-72
2022/11/30 04:50:13;;;;;;;;;;;4.00;99.90;;;;;;5042201;28;19929;-73
2022/11/30 04:52:45;;;;;;;;;;;4.00;99.90;;;;;;5028610;28;20387;-73
2022/11/30 04:55:12;;;;;;;;;;;4.00;99.90;;;;;;5038786;28;19984;-73
2022/11/30 04:57:47;;;;;;;;;;;4.00;99.90;;;;;;5020448;28;19933;-73
2022/11/30 05:00:19;;;;;;;;;;;4.00;99.90;;;;;;5037878;28;19979;-73
2022/11/30 05:02:50;;;;;;;;;;;4.00;99.90;;;;;;5032480;28;20326;-73
2022/11/30 05:05:22;;;;;;;;;;;4.00;99.90;;;;;;5021462;28;19929;-72
2022/11/30 05:07:55;;;;;;;;;;;3.90;99.90;;;;;;5039861;28;19933;-74
2022/11/30 05:10:23;;;;;;;;;;;4.00;99.90;;;;;;5040781;28;19971;-73
2022/11/30 05:12:55;;;;;;;;;;;3.90;99.90;;;;;;5004232;28;19984;-74
2022/11/30 05:15:27;;;;;;;;;;;3.90;99.90;;;;;;5032413;28;19925;-73
2022/11/30 05:17:56;;;;;;;;;;;3.90;99.90;;;;;;5007778;28;19983;-73
2022/11/30 05:20:23;;;;;;;;;;;3.90;99.90;;;;;;5015153;28;19960;-73
2022/11/30 05:22:55;;;;;;;;;;;3.90;99.90;;;;;;5021889;28;19933;-74
2022/11/30 05:25:26;;;;;;;;;;;4.00;99.90;;;;;;5022731;28;20414;-74
2022/11/30 05:27:58;;;;;;;;;;;4.00;99.90;;;;;;5023940;28;19929;-75
2022/11/30 05:30:24;;;;;;;;;;;4.00;99.90;;;;;;5012955;28;19929;-75
2022/11/30 05:32:56;;;;;;;;;;;4.00;99.90;;;;;;5007535;28;19928;-73
2022/11/30 05:35:27;;;;;;;;;;;3.90;99.90;;;;;;5017163;28;19975;-74
2022/11/30 05:37:54;;;;;;;;;;;4.00;99.90;;;;;;5018819;28;19925;-76
2022/11/30 05:40:27;;;;;;;;;;;3.90;99.90;;;;;;4997661;28;19925;-76
2022/11/30 05:42:59;;;;;;;;;;;3.90;99.90;;;;;;5031476;28;19978;-75
2022/11/30 05:45:26;;;;;;;;;;;3.90;99.90;;;;;;5012106;28;19929;-73
2022/11/30 05:47:58;;;;;;;;;;;3.90;99.90;;;;;;5024068;28;19932;-74
2022/11/30 05:50:24;;;;;;;;;;;3.90;99.90;;;;;;5017657;28;20345;-75
2022/11/30 05:52:56;;;;;;;;;;;4.00;99.90;;;;;;5038370;28;19956;-71
2022/11/30 05:55:28;;;;;;;;;;;4.00;99.90;;;;;;5020297;28;20323;-75
2022/11/30 05:58:00;;;;;;;;;;;4.00;99.90;;;;;;5030976;28;19936;-72
2022/11/30 06:00:26;;;;;;;;;;;4.00;99.90;;;;;;5020089;28;20000;-73
2022/11/30 06:02:58;;;;;;;;;;;3.90;99.90;;;;;;5029644;28;20383;-74
2022/11/30 06:05:32;;;;;;;;;;;3.90;99.90;;;;;;4993775;28;19925;-74
2022/11/30 06:08:04;;;;;;;;;;;3.90;99.90;;;;;;5036731;28;20354;-73
2022/11/30 06:10:35;;;;;;;;;;;3.90;99.90;;;;;;5032691;28;20403;-75
2022/11/30 06:13:08;;;;;;;;;;;3.90;99.90;;;;;;5009302;28;20354;-73
2022/11/30 06:15:35;;;;;;;;;;;3.90;99.90;;;;;;5013767;28;19937;-72
2022/11/30 06:18:08;;;;;;;;;;;3.90;99.90;;;;;;5037721;28;19925;-72
2022/11/30 06:20:39;;;;;;;;;;;3.80;99.90;;;;;;5031740;28;19929;-73
2022/11/30 06:23:11;;;;;;;;;;;3.80;99.90;;;;;;5011042;28;19955;-74
2022/11/30 06:25:42;;;;;;;;;;;3.80;99.90;;;;;;5026743;28;19925;-73
2022/11/30 06:28:09;;;;;;;;;;;3.80;99.90;;;;;;5019349;28;19925;-73
2022/11/30 06:30:41;;;;;;;;;;;3.80;99.90;;;;;;5028746;28;19929;-74
2022/11/30 06:33:13;;;;;;;;;;;3.80;99.90;;;;;;5006101;28;20299;-75
2022/11/30 06:35:45;;;;;;;;;;;3.80;99.90;;;;;;5032375;28;20264;-73
2022/11/30 06:38:17;;;;;;;;;;;3.80;99.90;;;;;;5012403;28;19988;-75
2022/11/30 06:40:49;;;;;;;;;;;3.80;99.90;;;;;;5016918;28;19929;-74
2022/11/30 06:43:20;;;;;;;;;;;3.80;99.90;;;;;;5033564;28;20392;-75
2022/11/30 06:45:52;;;;;;;;;;;3.80;99.90;;;;;;5036826;28;19983;-74
2022/11/30 06:48:24;;;;;;;;;;;3.80;99.90;;;;;;5023854;28;19953;-74
2022/11/30 06:50:55;;;;;;;;;;;3.80;99.90;;;;;;5037800;28;19929;-73
2022/11/30 06:53:27;;;;;;;;;;;3.80;99.90;;;;;;5016520;28;19925;-74
2022/11/30 06:56:02;;;;;;;;;;;3.80;99.90;;;;;;5014808;28;19928;-73
2022/11/30 06:58:29;;;;;;;;;;;3.80;99.90;;;;;;4998159;28;19925;-73
2022/11/30 07:00:55;;;;;;;;;;;3.80;99.90;;;;;;5030959;28;19940;-75
2022/11/30 07:03:22;;;;;;;;;;;3.80;99.90;;;;;;5018562;28;19980;-75
2022/11/30 07:05:48;;;;;;;;;;;3.80;99.90;;;;;;5013895;28;20315;-75
2022/11/30 07:08:20;;;;;;;;;;;3.80;99.90;;;;;;5018753;28;19952;-74
2022/11/30 07:10:51;;;;;;;;;;;3.80;99.90;;;;;;5026167;28;19933;-75
2022/11/30 07:13:23;;;;;;;;;;;3.80;99.90;;;;;;5017057;28;19932;-72
2022/11/30 07:15:50;;;;;;;;;;;3.90;99.90;;;;;;5028568;28;19936;-75
2022/11/30 07:18:21;;;;;;;;;;;3.90;99.90;;;;;;5038150;28;19929;-74
2022/11/30 07:20:53;;;;;;;;;;;3.80;99.90;;;;;;5042812;28;19979;-74
2022/11/30 07:26:15;;;;;;;;;;;3.80;99.90;;;;;;5015260;28;19936;-73
2022/11/30 07:28:53;;;;;;;;;;;3.80;99.90;;;;;;5002133;28;20061;-75
2022/11/30 07:31:26;;;;;;;;;;;3.80;99.90;;;;;;5001052;28;20088;-73
2022/11/30 07:33:53;;;;;;;;;;;3.80;99.90;;;;;;5017800;28;19952;-73
2022/11/30 07:36:26;;;;;;;;;;;3.80;99.90;;;;;;5001895;28;19937;-73
2022/11/30 07:38:52;;;;;;;;;;;3.80;99.90;;;;;;4998653;28;19971;-74
2022/11/30 07:41:24;;;;;;;;;;;3.80;99.90;;;;;;5016416;28;19937;-73
2022/11/30 07:43:56;;;;;;;;;;;3.90;99.90;;;;;;4998267;28;19929;-74
2022/11/30 07:46:27;;;;;;;;;;;3.90;99.90;;;;;;5025564;28;19925;-74
2022/11/30 07:48:59;;;;;;;;;;;3.80;99.90;;;;;;5012569;28;19979;-72
2022/11/30 07:51:31;;;;;;;;;;;4.20;99.90;;;;;;5038237;28;19925;-73
2022/11/30 07:54:03;;;;;;;;;;;4.30;99.90;;;;;;5030607;28;19929;-73
2022/11/30 07:56:29;;;;;;;;;;;4.30;99.90;;;;;;5038875;28;19929;-74
2022/11/30 07:59:01;;;;;;;;;;;4.30;99.90;;;;;;5033869;28;19967;-73
2022/11/30 08:01:33;;;;;;;;;;;4.20;99.90;;;;;;5018780;28;19952;-74
2022/11/30 08:04:05;;;;;;;;;;;4.20;99.90;;;;;;5028545;28;19933;-74
2022/11/30 08:06:31;;;;;;;;;;;4.10;99.90;;;;;;5011009;28;19929;-75
2022/11/30 08:09:03;;;;;;;;;;;4.00;99.90;;;;;;5015646;28;20415;-75
2022/11/30 08:11:31;;;;;;;;;;;4.00;99.90;;;;;;5028948;28;19968;-73
2022/11/30 08:14:03;;;;;;;;;;;4.00;99.90;;;;;;5041498;28;19978;-74
2022/11/30 08:16:36;;;;;;;;;;;3.90;99.90;;;;;;5019506;28;19955;-74
2022/11/30 08:19:03;;;;;;;;;;;3.90;99.90;;;;;;5038090;28;19929;-73
2022/11/30 08:21:34;;;;;;;;;;;3.90;99.90;;;;;;5022730;28;19929;-74
2022/11/30 08:24:09;;;;;;;;;;;3.80;99.90;;;;;;5044011;28;20410;-75
2022/11/30 08:26:36;;;;;;;;;;;3.80;99.90;;;;;;5020207;28;19929;-74
2022/11/30 08:29:03;;;;;;;;;;;3.80;99.90;;;;;;5036755;28;19924;-74
2022/11/30 08:31:31;;;;;;;;;;;3.90;99.90;;;;;;5031587;28;19983;-75
2022/11/30 08:33:59;;;;;;;;;;;4.00;99.90;;;;;;5014227;28;19925;-74
2022/11/30 08:36:27;;;;;;;;;;;4.00;99.90;;;;;;5036635;28;19928;-72
2022/11/30 08:38:55;;;;;;;;;;;4.00;99.90;;;;;;5037398;28;20465;-75
2022/11/30 08:41:27;;;;;;;;;;;4.00;99.90;;;;;;5037727;28;19932;-75
2022/11/30 08:43:54;;;;;;;;;;;4.00;99.90;;;;;;5033402;28;19933;-74
2022/11/30 08:46:26;;;;;;;;;;;4.00;99.90;;;;;;4998839;28;19933;-75
2022/11/30 08:48:52;;;;;;;;;;;4.00;99.90;;;;;;5023054;28;19929;-74
2022/11/30 08:51:24;;;;;;;;;;;4.00;99.90;;;;;;5034920;28;20379;-74
2022/11/30 08:53:57;;;;;;;;;;;4.00;99.90;;;;;;5003364;28;20025;-75
2022/11/30 08:56:29;;;;;;;;;;;4.00;99.90;;;;;;5028740;28;19925;-73
2022/11/30 08:59:00;;;;;;;;;;;4.10;99.90;;;;;;5038322;28;19929;-75
2022/11/30 09:01:32;;;;;;;;;;;4.10;99.90;;;;;;5019398;28;19979;-76
2022/11/30 09:04:03;;;;;;;;;;;4.10;99.90;;;;;;5032578;28;19929;-72
2022/11/30 09:06:35;;;;;;;;;;;4.10;99.90;;;;;;5016222;28;19937;-75
2022/11/30 09:09:06;;;;;;;;;;;4.00;99.90;;;;;;5025508;28;19928;-75
2022/11/30 09:11:33;;;;;;;;;;;4.00;99.90;;;;;;5039807;28;19935;-74
2022/11/30 09:14:02;;;;;;;;;;;4.10;99.90;;;;;;5032540;28;19932;-73
2022/11/30 09:16:34;;;;;;;;;;;4.10;99.90;;;;;;5020144;28;19955;-73
2022/11/30 09:19:06;;;;;;;;;;;4.10;99.90;;;;;;5037696;28;19929;-74
2022/11/30 09:21:37;;;;;;;;;;;4.10;99.90;;;;;;5019552;28;19925;-73
2022/11/30 09:24:04;;;;;;;;;;;4.10;99.90;;;;;;5018872;28;19953;-72
2022/11/30 09:26:36;;;;;;;;;;;4.10;99.90;;;;;;5032341;28;19929;-74
2022/11/30 09:29:07;;;;;;;;;;;4.20;99.90;;;;;;5025463;28;19987;-73
2022/11/30 09:31:39;;;;;;;;;;;4.10;99.90;;;;;;4990432;28;20473;-74
2022/11/30 09:34:11;;;;;;;;;;;4.10;99.90;;;;;;5013346;28;20630;-73
2022/11/30 09:36:42;;;;;;;;;;;4.10;99.90;;;;;;5016246;28;19987;-74
2022/11/30 09:39:14;;;;;;;;;;;4.00;99.90;;;;;;5018490;28;19991;-73
2022/11/30 09:41:49;;;;;;;;;;;4.00;99.90;;;;;;5036707;28;19937;-75
2022/11/30 09:44:22;;;;;;;;;;;4.00;99.90;;;;;;5028444;28;21428;-74
2022/11/30 09:47:03;;;;;;;;;;;4.10;99.90;;;;;;5016285;28;19925;-74
2022/11/30 09:49:36;;;;;;;;;;;4.10;99.90;;;;;;4998065;28;19926;-74
2022/11/30 09:52:10;;;;;;;;;;;4.10;99.90;;;;;;5032858;28;19929;-75
2022/11/30 09:54:43;;;;;;;;;;;4.10;99.90;;;;;;5005565;28;20427;-73
2022/11/30 09:57:32;;;;;;;;;;;4.10;99.90;;;;;;5030953;28;19929;-74
2022/11/30 10:00:05;;;;;;;;;;;4.10;99.90;;;;;;5039612;28;19929;-75
2022/11/30 10:02:40;;;;;;;;;;;4.20;99.90;;;;;;5033759;28;19933;-73
2022/11/30 10:05:13;;;;;;;;;;;4.20;99.90;;;;;;5002590;28;19990;-74
2022/11/30 10:07:54;;;;;;;;;;;4.30;99.90;;;;;;5020108;28;19929;-72
2022/11/30 10:10:44;;;;;;;;;;;4.20;99.90;;;;;;5036405;28;20351;-75
2022/11/30 10:13:26;;;;;;;;;;;4.20;99.90;;;;;;5016706;28;19935;-75
2022/11/30 10:15:53;;;;;;;;;;;4.30;99.90;;;;;;5008870;28;20292;-74
2022/11/30 10:18:40;;;;;;;;;;;4.30;99.90;;;;;;5039560;28;19928;-74
2022/11/30 10:21:16;;;;;;;;;;;4.30;99.90;;;;;;5015133;28;19928;-73
2022/11/30 10:24:01;;;;;;;;;;;4.30;99.90;;;;;;5041779;28;19983;-74
2022/11/30 10:26:34;;;;;;;;;;;4.30;99.90;;;;;;4999009;28;19931;-72
2022/11/30 10:29:19;;;;;;;;;;;4.30;99.90;;;;;;5021676;28;19983;-73
2022/11/30 10:31:54;;;;;;;;;;;4.50;99.90;;;;;;5016416;28;20384;-74
2022/11/30 10:34:32;;;;;;;;;;;4.50;99.90;;;;;;5028403;28;19932;-73
2022/11/30 10:37:05;;;;;;;;;;;4.50;99.90;;;;;;4999827;28;19929;-73
2022/11/30 10:39:37;;;;;;;;;;;4.50;99.90;;;;;;5002703;28;19929;-73
2022/11/30 10:42:11;;;;;;;;;;;4.50;99.90;;;;;;4998914;28;20469;-74
2022/11/30 10:44:47;;;;;;;;;;;4.50;99.90;;;;;;4998498;28;19932;-75
2022/11/30 10:47:21;;;;;;;;;;;4.50;99.90;;;;;;5031782;28;19937;-74
2022/11/30 10:49:48;;;;;;;;;;;4.50;99.90;;;;;;5021564;28;19925;-73
2022/11/30 10:52:23;;;;;;;;;;;4.60;99.90;;;;;;5046120;28;19971;-74
2022/11/30 10:54:56;;;;;;;;;;;4.60;99.90;;;;;;5020990;28;19929;-73
2022/11/30 10:57:29;;;;;;;;;;;4.60;99.90;;;;;;5035506;28;19936;-74
2022/11/30 10:59:57;;;;;;;;;;;4.60;99.90;;;;;;4990391;28;19980;-74
2022/11/30 11:02:39;;;;;;;;;;;4.60;99.90;;;;;;5035291;28;19975;-74
2022/11/30 11:05:18;;;;;;;;;;;4.60;99.90;;;;;;5034769;28;20492;-73
2022/11/30 11:07:50;;;;;;;;;;;4.50;99.90;;;;;;5043005;28;19929;-76
2022/11/30 11:10:42;;;;;;;;;;;4.50;99.90;;;;;;5018554;28;19925;-74
2022/11/30 11:13:32;;;;;;;;;;;4.50;99.90;;;;;;5019878;28;19933;-72
2022/11/30 11:16:05;;;;;;;;;;;4.50;99.90;;;;;;4999834;28;19970;-73
2022/11/30 11:18:53;;;;;;;;;;;4.50;99.90;;;;;;5025757;28;19925;-75
2022/11/30 11:21:25;;;;;;;;;;;4.60;99.90;;;;;;5032812;28;19926;-73
2022/11/30 11:23:56;;;;;;;;;;;4.60;99.90;;;;;;5007532;28;19929;-71
2022/11/30 11:26:29;;;;;;;;;;;4.60;99.90;;;;;;5036910;28;19925;-72
2022/11/30 11:29:01;;;;;;;;;;;4.50;99.90;;;;;;5003583;28;20335;-74
2022/11/30 11:31:44;;;;;;;;;;;4.60;99.90;;;;;;5036615;28;19924;-73
2022/11/30 11:34:24;;;;;;;;;;;4.50;99.90;;;;;;5008303;28;19979;-73
2022/11/30 11:37:05;;;;;;;;;;;4.50;99.90;;;;;;5036308;28;19925;-73
2022/11/30 11:39:36;;;;;;;;;;;4.60;99.90;;;;;;5021562;28;19935;-75
2022/11/30 11:42:16;;;;;;;;;;;4.60;99.90;;;;;;5037352;28;19926;-73
2022/11/30 11:44:55;;;;;;;;;;;4.60;99.90;;;;;;5036216;28;19976;-74
2022/11/30 11:47:38;;;;;;;;;;;4.60;99.90;;;;;;5016064;28;20433;-73
2022/11/30 11:50:30;;;;;;;;;;;4.60;99.90;;;;;;5023807;28;19952;-74
2022/11/30 11:53:21;;;;;;;;;;;4.60;99.90;;;;;;5020340;28;19925;-73
2022/11/30 11:55:58;;;;;;;;;;;4.60;99.90;;;;;;5036913;28;20376;-72
2022/11/30 11:58:34;;;;;;;;;;;4.60;99.90;;;;;;5043050;28;19929;-74
2022/11/30 12:01:12;;;;;;;;;;;4.60;99.90;;;;;;5038548;28;20614;-72
2022/11/30 12:03:55;;;;;;;;;;;4.60;99.90;;;;;;5013333;28;20347;-73
2022/11/30 12:06:28;;;;;;;;;;;4.60;99.90;;;;;;5033262;28;19982;-73
2022/11/30 12:09:06;;;;;;;;;;;4.60;99.90;;;;;;5019200;28;19925;-73
2022/11/30 12:11:42;;;;;;;;;;;4.50;99.90;;;;;;5046723;28;20023;-74
2022/11/30 12:14:15;;;;;;;;;;;4.50;99.90;;;;;;5036113;28;19971;-73
2022/11/30 12:16:42;;;;;;;;;;;4.50;99.90;;;;;;5013943;28;19925;-73
2022/11/30 12:19:19;;;;;;;;;;;4.40;99.90;;;;;;5020949;28;19959;-73
2022/11/30 12:22:02;;;;;;;;;;;4.40;99.90;;;;;;5030923;28;19933;-74
2022/11/30 12:24:34;;;;;;;;;;;4.40;99.90;;;;;;5010580;28;20452;-74
2022/11/30 12:27:00;;;;;;;;;;;4.40;99.90;;;;;;5033584;28;19932;-73
2022/11/30 12:29:41;;;;;;;;;;;4.40;99.90;;;;;;5046687;28;20735;-74
2022/11/30 12:32:24;;;;;;;;;;;4.40;99.90;;;;;;4992154;28;19977;-73
2022/11/30 12:35:01;;;;;;;;;;;4.50;99.90;;;;;;5024636;28;19925;-74
2022/11/30 12:37:39;;;;;;;;;;;4.50;99.90;;;;;;5027474;28;19925;-74
2022/11/30 12:40:18;;;;;;;;;;;4.50;99.90;;;;;;5035679;28;19929;-75
2022/11/30 12:43:08;;;;;;;;;;;4.50;99.90;;;;;;5043709;28;19931;-74
2022/11/30 12:45:42;;;;;;;;;;;4.50;99.90;;;;;;5013729;28;19929;-74
2022/11/30 12:48:24;;;;;;;;;;;4.50;99.90;;;;;;5017584;28;19924;-75
2022/11/30 12:50:55;;;;;;;;;;;4.60;99.90;;;;;;5040640;28;19925;-73
2022/11/30 12:53:30;;;;;;;;;;;4.50;99.90;;;;;;5042836;28;19955;-74
2022/11/30 12:56:28;;;;;;;;;;;4.50;99.90;;;;;;5028425;28;20375;-74
2022/11/30 12:59:03;;;;;;;;;;;4.50;99.90;;;;;;5013314;28;19952;-75
2022/11/30 13:01:56;;;;;;;;;;;4.50;99.90;;;;;;5031039;28;19925;-74
2022/11/30 13:04:41;;;;;;;;;;;4.50;99.90;;;;;;5028896;28;19978;-73
2022/11/30 13:07:24;;;;;;;;;;;4.50;99.90;;;;;;4995241;28;19979;-75
2022/11/30 13:09:52;;;;;;;;;;;4.40;99.90;;;;;;5048047;28;20346;-75
2022/11/30 13:12:35;;;;;;;;;;;4.40;99.90;;;;;;5026076;28;19975;-74
2022/11/30 13:15:16;;;;;;;;;;;4.40;99.90;;;;;;5040686;28;19979;-74
2022/11/30 13:17:51;;;;;;;;;;;4.50;99.90;;;;;;5036837;28;19929;-73
2022/11/30 13:20:27;;;;;;;;;;;4.50;99.90;;;;;;5051651;28;19971;-74
2022/11/30 13:22:59;;;;;;;;;;;4.50;99.90;;;;;;5033665;28;19932;-76
2022/11/30 13:25:32;;;;;;;;;;;4.50;99.90;;;;;;5011831;28;20355;-74
2022/11/30 13:28:22;;;;;;;;;;;4.50;99.90;;;;;;5013820;28;19975;-73
2022/11/30 13:30:56;;;;;;;;;;;4.50;99.90;;;;;;5022357;28;20288;-73
2022/11/30 13:33:43;;;;;;;;;;;4.50;99.90;;;;;;4994401;28;19929;-72
2022/11/30 13:36:21;;;;;;;;;;;4.50;99.90;;;;;;5023090;28;20331;-72
2022/11/30 13:39:29;;;;;;;;;;;4.50;99.90;;;;;;5031124;28;19975;-74
2022/11/30 13:42:00;;;;;;;;;;;4.50;99.90;;;;;;4935995;29;19927;-73
2022/11/30 13:44:33;;;;;;;;;;;4.50;99.90;;;;;;5000343;28;19991;-72
2022/11/30 13:47:12;;;;;;;;;;;4.50;99.90;;;;;;5032138;28;19978;-74
2022/11/30 13:49:44;;;;;;;;;;;4.50;99.90;;;;;;5011915;28;19926;-73
2022/11/30 13:52:36;;;;;;;;;;;4.40;99.90;;;;;;5026843;28;19925;-74
2022/11/30 13:55:26;;;;;;;;;;;4.40;99.90;;;;;;5013696;28;19929;-72
2022/11/30 13:57:58;;;;;;;;;;;4.40;99.90;;;;;;5029598;28;19929;-73
2022/11/30 14:00:29;;;;;;;;;;;4.40;99.90;;;;;;5050163;28;19925;-73
2022/11/30 14:03:16;;;;;;;;;;;4.40;99.90;;;;;;5046306;28;19924;-74
2022/11/30 14:05:51;;;;;;;;;;;4.40;99.90;;;;;;5033403;28;19929;-74
2022/11/30 14:08:23;;;;;;;;;;;4.40;99.90;;;;;;5031308;28;19925;-73
2022/11/30 14:11:14;;;;;;;;;;;4.30;99.90;;;;;;5024899;28;19925;-74
2022/11/30 14:13:45;;;;;;;;;;;4.40;99.90;;;;;;5030259;28;20388;-74
2022/11/30 14:16:26;;;;;;;;;;;4.30;99.90;;;;;;5030398;28;20347;-73
2022/11/30 14:18:58;;;;;;;;;;;4.30;99.90;;;;;;5040779;28;19932;-74
2022/11/30 14:21:31;;;;;;;;;;;4.30;99.90;;;;;;5031628;28;19925;-74
2022/11/30 14:24:05;;;;;;;;;;;4.20;99.90;;;;;;5026149;28;19934;-74
2022/11/30 14:26:39;;;;;;;;;;;4.20;99.90;;;;;;5006262;28;19964;-74
2022/11/30 14:29:29;;;;;;;;;;;4.30;99.90;;;;;;5014390;28;19929;-74
2022/11/30 14:32:07;;;;;;;;;;;4.40;99.90;;;;;;5029925;28;19972;-73
2022/11/30 14:34:53;;;;;;;;;;;4.40;99.90;;;;;;5029512;28;19974;-74
2022/11/30 14:37:30;;;;;;;;;;;4.30;99.90;;;;;;5032848;28;19972;-73
2022/11/30 14:40:05;;;;;;;;;;;4.30;99.90;;;;;;5020582;28;20383;-73
2022/11/30 14:42:33;;;;;;;;;;;4.20;99.90;;;;;;5036387;28;19950;-74
2022/11/30 14:45:16;;;;;;;;;;;4.20;99.90;;;;;;5001267;28;19930;-74
2022/11/30 14:47:53;;;;;;;;;;;4.20;99.90;;;;;;5026671;28;19929;-73
2022/11/30 14:50:25;;;;;;;;;;;4.20;99.90;;;;;;5017074;28;19925;-73
2022/11/30 14:53:01;;;;;;;;;;;4.10;99.90;;;;;;5020447;28;19975;-73
2022/11/30 14:55:28;;;;;;;;;;;4.10;99.90;;;;;;5048891;28;20356;-72
2022/11/30 14:57:54;;;;;;;;;;;4.00;99.90;;;;;;5036328;28;20380;-74
2022/11/30 15:00:21;;;;;;;;;;;4.00;99.90;;;;;;5035871;28;19929;-73
2022/11/30 15:02:53;;;;;;;;;;;4.00;99.90;;;;;;5041974;28;19925;-73
2022/11/30 15:05:27;;;;;;;;;;;4.00;99.90;;;;;;5034791;28;19929;-75
2022/11/30 15:07:59;;;;;;;;;;;4.00;99.90;;;;;;5024538;28;20283;-73
2022/11/30 15:10:31;;;;;;;;;;;4.00;99.90;;;;;;5014630;28;19961;-73